Map

Track Data

SID SEASON NUMBER BASIN SUBBASIN NAME ISO_TIME NATURE LAT LON WMO_WIND WMO_PRES WMO_AGENCY TRACK_TYPE DIST2LAND LANDFALL IFLAG USA_AGENCY USA_ATCF_ID USA_LAT USA_LON USA_RECORD USA_STATUS USA_WIND USA_PRES USA_SSHS USA_R34_NE USA_R34_SE USA_R34_SW USA_R34_NW USA_R50_NE USA_R50_SE USA_R50_SW USA_R50_NW USA_R64_NE USA_R64_SE USA_R64_SW USA_R64_NW USA_POCI USA_ROCI USA_RMW USA_EYE TOKYO_LAT TOKYO_LON TOKYO_GRADE TOKYO_WIND TOKYO_PRES TOKYO_R50_DIR TOKYO_R50_LONG TOKYO_R50_SHORT TOKYO_R30_DIR TOKYO_R30_LONG TOKYO_R30_SHORT TOKYO_LAND CMA_LAT CMA_LON CMA_CAT CMA_WIND CMA_PRES HKO_LAT HKO_LON HKO_CAT HKO_WIND HKO_PRES NEWDELHI_LAT NEWDELHI_LON NEWDELHI_GRADE NEWDELHI_WIND NEWDELHI_PRES NEWDELHI_CI NEWDELHI_DP NEWDELHI_POCI REUNION_LAT REUNION_LON REUNION_TYPE REUNION_WIND REUNION_PRES REUNION_TNUM REUNION_CI REUNION_RMW REUNION_R34_NE REUNION_R34_SE REUNION_R34_SW REUNION_R34_NW REUNION_R50_NE REUNION_R50_SE REUNION_R50_SW REUNION_R50_NW REUNION_R64_NE REUNION_R64_SE REUNION_R64_SW REUNION_R64_NW BOM_LAT BOM_LON BOM_TYPE BOM_WIND BOM_PRES BOM_TNUM BOM_CI BOM_RMW BOM_R34_NE BOM_R34_SE BOM_R34_SW BOM_R34_NW BOM_R50_NE BOM_R50_SE BOM_R50_SW BOM_R50_NW BOM_R64_NE BOM_R64_SE BOM_R64_SW BOM_R64_NW BOM_ROCI BOM_POCI BOM_EYE BOM_POS_METHOD BOM_PRES_METHOD NADI_LAT NADI_LON NADI_CAT NADI_WIND NADI_PRES WELLINGTON_LAT WELLINGTON_LON WELLINGTON_WIND WELLINGTON_PRES DS824_LAT DS824_LON DS824_STAGE DS824_WIND DS824_PRES TD9636_LAT TD9636_LON TD9636_STAGE TD9636_WIND TD9636_PRES TD9635_LAT TD9635_LON TD9635_WIND TD9635_PRES TD9635_ROCI NEUMANN_LAT NEUMANN_LON NEUMANN_CLASS NEUMANN_WIND NEUMANN_PRES MLC_LAT MLC_LON MLC_CLASS MLC_WIND MLC_PRES USA_GUST BOM_GUST BOM_GUST_PER REUNION_GUST REUNION_GUST_PER USA_SEAHGT USA_SEARAD_NE USA_SEARAD_SE USA_SEARAD_SW USA_SEARAD_NW STORM_SPEED STORM_DIR
1970033S16085 1970 11 SI MM ISEULT 1970-02-01 12:00:00 TS -15.6000 84.9000 main 2187 2187 O________OO___ jtwc_sh SH131970 -15.6000 84.9000 -1 -15.6000 84.9000 TC -15.6000 84.9000 7 10 247
1970033S16085 1970 11 SI MM ISEULT 1970-02-01 15:00:00 TS -15.7950 84.4268 main 2241 2241 P________PP___ SH131970 -15.8027 84.4427 -1 -15.8027 84.4427 TC -15.7798 84.3949 7 10 246
1970033S16085 1970 11 SI MM ISEULT 1970-02-01 18:00:00 TS -15.9890 83.9772 main 2287 2287 O________OP___ jtwc_sh SH131970 -16.0000 84.0000 -1 -16.0000 84.0000 TC -15.9670 83.9315 7 9 244
1970033S16085 1970 11 SI MM ISEULT 1970-02-01 21:00:00 TS -16.1852 83.5824 main 2334 2334 P________PP___ SH131970 -16.1925 83.5975 -1 -16.1925 83.5975 TC -16.1707 83.5522 7 8 225
1970033S16085 1970 11 SI MM ISEULT 1970-02-02 00:00:00 TS -16.5429 83.4000 main 2372 2372 O____O___OO_O_ jtwc_sh SH131970 -16.4000 83.3000 -1 -17.4000 84.0000 3 9.90000 -16.4000 83.3000 TC 25 -16.4000 83.3000 1 -17.4000 84.0000 TC 35 7 206
1970033S16085 1970 11 SI MM ISEULT 1970-02-02 03:00:00 TS -16.8365 83.2580 main 2403 2403 P____P___PP_P_ SH131970 -16.6424 83.1698 -1 -17.4027 83.5000 3 -16.6424 83.1698 TC 25 -16.6586 83.1924 1 -17.4027 83.5000 TC 35 6 210
1970033S16085 1970 11 SI MM ISEULT 1970-02-02 06:00:00 TS -17.0728 83.0769 main 2442 2442 O____O___OP_O_ jtwc_sh SH131970 -16.9000 83.1000 -1 -17.4000 83.0000 99 9.90000 -16.9000 83.1000 TC 25 -16.9277 83.1461 1 -17.4000 83.0000 TC 35 6 224
1970033S16085 1970 11 SI MM ISEULT 1970-02-02 09:00:00 TS -17.2594 82.8262 main 2480 2480 P____P___PP_P_ SH131970 -17.1646 83.0398 -1 -17.3924 82.4999 99 -17.1646 83.0398 TC 25 -17.1831 83.0519 1 -17.3924 82.4999 TC 35 7 240
1970033S16085 1970 11 SI MM ISEULT 1970-02-02 12:00:00 TS -17.4000 82.4800 main 2511 2511 O____O___OO_O_ jtwc_sh SH131970 -17.4000 82.8000 -1 -17.4000 82.0000 99 9.90000 -17.4000 82.8000 TC 25 -17.4000 82.8000 1 -17.4000 82.0000 TC 35 9 253
1970033S16085 1970 11 SI MM ISEULT 1970-02-02 15:00:00 TS -17.5215 81.9119 main 2552 2487 P____P___PP_P_ SH131970 -17.5803 82.1902 -1 -17.4424 81.5000 99 -17.5803 82.1902 TC 25 -17.5621 82.1791 1 -17.4424 81.5000 TC 35 12 260
1970033S16085 1970 11 SI MM ISEULT 1970-02-02 18:00:00 TS -17.6158 81.2406 main 2477 2412 O____O___OP_O_ jtwc_sh SH131970 -17.7000 81.4000 -1 -17.5000 81.0000 99 9.90000 -17.7000 81.4000 TC 25 -17.6790 81.4032 1 -17.5000 81.0000 TC 35 13 263
1970033S16085 1970 11 SI MM ISEULT 1970-02-02 21:00:00 TS -17.6833 80.5561 main 2412 2350 P____P___PP_P_ SH131970 -17.7729 80.5899 -1 -17.5574 80.5000 99 -17.7729 80.5899 TC 25 -17.7560 80.6006 1 -17.5574 80.5000 TC 35 12 265
1970033S16085 1970 11 SI MM ISEULT 1970-02-03 00:00:00 TS -17.7200 79.9400 reunion main 2339 2298 O____O___OO_O_ jtwc_sh SH131970 -17.8000 79.9000 -1 -17.6000 80.0000 3 9.90000 -17.8000 79.9000 TC 25 -17.8000 79.9000 1 -17.6000 80.0000 TC 35 10 267
1970033S16085 1970 11 SI MM ISEULT 1970-02-03 03:00:00 TS -17.7319 79.5125 main 2298 2267 P____P___PP_P_ SH131970 -17.8070 79.5324 -1 -17.6074 79.4999 3 -17.8070 79.5324 TC 25 -17.8309 79.4978 1 -17.6074 79.4999 TC 35 7 269
1970033S16085 1970 11 SI MM ISEULT 1970-02-03 06:00:00 TS -17.7270 79.1619 reunion main 2267 2225 O____O___OP_O_ jtwc_sh SH131970 -17.8000 79.3000 -1 -17.6000 79.0000 99 9.90000 -17.8000 79.3000 TC 25 -17.8352 79.2096 1 -17.6000 79.0000 TC 35 7 271
1970033S16085 1970 11 SI MM ISEULT 1970-02-03 09:00:00 TS -17.7213 78.7993 main 2225 2183 P____P___PP_P_ SH131970 -17.7999 79.0150 -1 -17.5924 78.4999 99 -17.7999 79.0150 TC 25 -17.8219 78.9667 1 -17.5924 78.4999 TC 35 7 271
1970033S16085 1970 11 SI MM ISEULT 1970-02-03 12:00:00 TS -17.7200 78.4200 reunion main 2183 2142 O____O___OO_O_ jtwc_sh SH131970 -17.8000 78.7000 -1 -17.6000 78.0000 99 9.90000 -17.8000 78.7000 TC 25 -17.8000 78.7000 1 -17.6000 78.0000 TC 35 8 269
1970033S16085 1970 11 SI MM ISEULT 1970-02-03 15:00:00 TS -17.7364 77.9920 main 2142 2098 P____P___PP_P_ SH131970 -17.8075 78.3225 -1 -17.6424 77.5000 99 -17.8075 78.3225 TC 25 -17.7822 78.3149 1 -17.6424 77.5000 TC 35 8 268
1970033S16085 1970 11 SI MM ISEULT 1970-02-03 18:00:00 TS -17.7515 77.5390 reunion main 2088 2046 O____O___OP_O_ jtwc_sh SH131970 -17.8000 77.9000 -1 -17.7000 77.0000 99 9.90000 -17.8000 77.9000 TC 25 -17.7575 77.8949 1 -17.7000 77.0000 TC 35 9 269
1970033S16085 1970 11 SI MM ISEULT 1970-02-03 21:00:00 TS -17.7488 77.0645 main 2048 1996 P____P___PP_P_ SH131970 -17.7499 77.4574 -1 -17.7575 76.4775 99 -17.7499 77.4574 TC 30 -17.7290 77.4524 1 -17.7575 76.4775 TC 35 9 271
1970033S16085 1970 11 SI MM ISEULT 1970-02-04 00:00:00 TS -17.7400 76.6000 reunion main 1996 1955 O____O___OO_O_ jtwc_sh SH131970 -17.7000 77.0000 -1 -17.8000 76.0000 3 9.90000 -17.7000 77.0000 TC 35 -17.7000 77.0000 2 -17.8000 76.0000 TC 35 8 271
1970033S16085 1970 11 SI MM ISEULT 1970-02-04 03:00:00 TS -17.7362 76.1827 main 1955 1913 P____P___PP_P_ SH131970 -17.6999 76.5501 -1 -17.8073 75.6199 3 -17.6999 76.5501 TC 35 -17.6664 76.5733 2 -17.8073 75.6199 TC 35 8 271
1970033S16085 1970 11 SI MM ISEULT 1970-02-04 06:00:00 TS -17.7268 75.7875 reunion main 1913 1872 O____O___OP_O_ jtwc_sh SH131970 -17.7000 76.1000 -1 -17.8000 75.3000 99 9.90000 -17.7000 76.1000 TC 35 -17.6343 76.1373 2 -17.8000 75.3000 TC 35 7 273
1970033S16085 1970 11 SI MM ISEULT 1970-02-04 09:00:00 TS -17.6989 75.4025 main 1872 1830 P____P___PP_P_ SH131970 -17.6497 75.6724 -1 -17.7924 74.9925 99 -17.6497 75.6724 TC 35 -17.6100 75.6826 2 -17.7924 74.9925 TC 37 8 274
1970033S16085 1970 11 SI MM ISEULT 1970-02-04 12:00:00 TS -17.6800 75.0000 reunion main 1830 1789 O____O___OO_O_ jtwc_sh SH131970 -17.6000 75.2000 -1 -17.8000 74.7000 99 9.90000 -17.6000 75.2000 TC 35 -17.6000 75.2000 2 -17.8000 74.7000 TC 40 8 270
1970033S16085 1970 11 SI MM ISEULT 1970-02-04 15:00:00 TS -17.6979 74.5389 main 1778 1737 P____P___PP_P_ SH131970 -17.5851 74.6075 -1 -17.8498 74.4225 99 -17.5851 74.6075 TC 35 -17.6194 74.6344 2 -17.8498 74.4225 TC 42 9 267
1970033S16085 1970 11 SI MM ISEULT 1970-02-04 18:00:00 TS -17.7302 74.0496 reunion main 1727 1683 O____O___OP_O_ jtwc_sh SH131970 -17.6000 74.0000 -1 -17.9000 74.1000 99 9.90000 -17.6000 74.0000 TC 35 -17.6510 74.0480 2 -17.9000 74.1000 TC 45 10 266
1970033S16085 1970 11 SI MM ISEULT 1970-02-04 21:00:00 TS -17.7685 73.5336 main 1673 1631 P____P___PP_P_ SH131970 -17.6499 73.4551 -1 -17.9302 73.6351 99 -17.6499 73.4551 TC 35 -17.6820 73.4875 2 -17.9302 73.6351 TC 47 9 267
1970033S16085 1970 11 SI MM ISEULT 1970-02-05 00:00:00 TS -17.7800 73.0800 reunion main 1631 1603 O____O___OO_O_ jtwc_sh SH131970 -17.7000 73.0000 -1 -17.9000 73.2000 3 9.90000 -17.7000 73.0000 TC 35 -17.7000 73.0000 2 -17.9000 73.2000 TC 50 7 273
1970033S16085 1970 11 SI MM ISEULT 1970-02-05 03:00:00 TS -17.7347 72.7860 main 1603 1582 P____P___PP_P_ SH131970 -17.7148 72.6625 -1 -17.7798 72.9776 3 -17.7148 72.6625 TC 35 -17.6844 72.6499 2 -17.7798 72.9776 TC 52 5 284
1970033S16085 1970 11 SI MM ISEULT 1970-02-05 06:00:00 TS -17.6513 72.5550 reunion main 1582 1554 O____O___OP_O_ jtwc_sh SH131970 -17.7000 72.4000 -1 -17.6000 72.8000 99 9.90000 -17.7000 72.4000 TC 35 -17.6564 72.3749 2 -17.6000 72.8000 TC 55 5 293
1970033S16085 1970 11 SI MM ISEULT 1970-02-05 09:00:00 TS -17.5390 72.2904 main 1556 1528 P____P___PP_P_ SH131970 -17.6499 72.1500 -1 -17.3850 72.5074 99 -17.6499 72.1500 TC 35 -17.6252 72.1374 2 -17.3850 72.5074 TC 57 6 292
1970033S16085 1970 11 SI MM ISEULT 1970-02-05 12:00:00 TS -17.4400 72.0200 reunion main 1528 1508 O____O___OO_O_ jtwc_sh SH131970 -17.6000 71.9000 -1 -17.2000 72.2000 99 9.90000 -17.6000 71.9000 TC 35 -17.6000 71.9000 2 -17.2000 72.2000 TC 60 5 285
1970033S16085 1970 11 SI MM ISEULT 1970-02-05 15:00:00 TS -17.4027 71.7467 main 1497 1477 P____P___PP_P_ SH131970 -17.5925 71.6075 -1 -17.1199 71.9576 99 -17.5925 71.6075 TC 35 -17.5887 71.6031 2 -17.1199 71.9576 TC 62 5 275
1970033S16085 1970 11 SI MM ISEULT 1970-02-05 18:00:00 TS -17.3970 71.4600 reunion main 1477 1446 O____O___OP_O_ jtwc_sh SH131970 -17.6000 71.3000 -1 -17.1000 71.7000 99 9.90000 -17.6000 71.3000 TC 35 -17.5850 71.3000 2 -17.1000 71.7000 TC 65 6 271
1970033S16085 1970 11 SI MM ISEULT 1970-02-05 21:00:00 TS -17.3887 71.1483 main 1436 1405 P____P___PP_P_ SH131970 -17.5925 71.0000 -1 -17.0850 71.3725 99 -17.5925 71.0000 TC 35 -17.5887 70.9969 2 -17.0850 71.3725 TC 67 6 270
1970033S16085 1970 11 SI MM ISEULT 1970-02-06 00:00:00 TS -17.4000 70.8200 reunion main 1405 1374 O____O___OO_O_ jtwc_sh SH131970 -17.6000 70.7000 -1 -17.1000 71.0000 4 9.90000 -17.6000 70.7000 TC 35 -17.6000 70.7000 2 -17.1000 71.0000 TC 70 6 265
1970033S16085 1970 11 SI MM ISEULT 1970-02-06 03:00:00 TS -17.4422 70.4771 main 1374 1341 P____P___PP_P_ SH131970 -17.6500 70.3926 -1 -17.1426 70.5850 4 -17.6500 70.3926 TC 35 -17.6256 70.4301 2 -17.1426 70.5850 TC 72 6 262
1970033S16085 1970 11 SI MM ISEULT 1970-02-06 06:00:00 TS -17.4914 70.1530 reunion main 1341 1310 O____O___OP_O_ jtwc_sh SH131970 -17.7000 70.1000 -1 -17.2000 70.2000 99 9.90000 -17.7000 70.1000 TC 35 -17.6571 70.1652 2 -17.2000 70.2000 TC 75 6 263
1970033S16085 1970 11 SI MM ISEULT 1970-02-06 09:00:00 TS -17.5109 69.9014 main 1310 1290 P____P___PP_P_ SH131970 -17.7074 69.8575 -1 -17.2273 69.9498 99 -17.7074 69.8575 TC 35 -17.6850 69.8926 2 -17.2273 69.9498 TC 77 5 264
1970033S16085 1970 11 SI MM ISEULT 1970-02-06 12:00:00 TS -17.5400 69.6400 reunion main 1279 1246 O____O___OO_O_ jtwc_sh SH131970 -17.7000 69.6000 -1 -17.3000 69.7000 99 9.90000 -17.7000 69.6000 TC 35 -17.7000 69.6000 2 -17.3000 69.7000 TC 80 6 260
1970033S16085 1970 11 SI MM ISEULT 1970-02-06 15:00:00 TS -17.6172 69.2815 main 1246 1202 P____P___PP_P_ SH131970 -17.7075 69.2650 -1 -17.4926 69.3152 99 -17.7075 69.2650 TC 35 -17.6856 69.2470 2 -17.4926 69.3152 TC 82 7 258
1970033S16085 1970 11 SI MM ISEULT 1970-02-06 18:00:00 TS -17.6916 68.8955 reunion main 1202 1171 O____O___OP_O_ jtwc_sh SH131970 -17.7000 68.9000 -1 -17.7000 68.9000 99 9.90000 -17.7000 68.9000 TC 35 -17.6579 68.8773 2 -17.7000 68.9000 TC 85 7 262
1970033S16085 1970 11 SI MM ISEULT 1970-02-06 21:00:00 TS -17.7142 68.5317 main 1161 1131 P____P___PP_P_ SH131970 -17.6500 68.5274 -1 -17.8224 68.5424 99 -17.6500 68.5274 TC 35 -17.6262 68.5189 2 -17.8224 68.5424 TC 87 7 268
1970033S16085 1970 11 SI MM ISEULT 1970-02-07 00:00:00 TS -17.7200 68.2000 reunion main 1131 1100 O____O___OO_O_ jtwc_sh SH131970 -17.6000 68.2000 -1 -17.9000 68.2000 4 9.90000 -17.6000 68.2000 TC 35 -17.6000 68.2000 2 -17.9000 68.2000 TC 90 6 267
1970033S16085 1970 11 SI MM ISEULT 1970-02-07 03:00:00 TS -17.7414 67.9259 main 1100 1077 P____P___PP_P_ SH131970 -17.5924 67.9775 -1 -17.9650 67.8425 4 -17.5924 67.9775 TC 35 -17.5922 67.9894 2 -17.9650 67.8425 TC 92 5 266
1970033S16085 1970 11 SI MM ISEULT 1970-02-07 06:00:00 TS -17.7583 67.6830 reunion main 1077 1056 O____O___OP_O_ jtwc_sh SH131970 -17.6000 67.8000 -1 -18.0000 67.5000 99 9.90000 -17.6000 67.8000 TC 35 -17.5916 67.8151 2 -18.0000 67.5000 TC 95 4 267
1970033S16085 1970 11 SI MM ISEULT 1970-02-07 09:00:00 TS -17.7649 67.4586 main 1056 1026 P____P___PP_P_ SH131970 -17.5999 67.6300 -1 -18.0149 67.2000 99 -17.5999 67.6300 TC 35 -17.5953 67.6332 2 -18.0149 67.2000 TC 97 5 270
1970033S16085 1970 11 SI MM ISEULT 1970-02-07 12:00:00 TS -17.7600 67.2000 reunion main 1026 999 O____O___OO_O_ jtwc_sh SH131970 -17.6000 67.4000 -1 -18.0000 66.9000 99 9.90000 -17.6000 67.4000 TC 35 -17.6000 67.4000 2 -18.0000 66.9000 TC 100 6 272
1970033S16085 1970 11 SI MM ISEULT 1970-02-07 15:00:00 TS -17.7401 66.8416 main 989 959 P____P___PP_P_ SH131970 -17.6001 67.0300 -1 -17.9500 66.5574 99 -17.6001 67.0300 TC 35 -17.6005 67.0331 2 -17.9500 66.5574 TC 102 7 273
1970033S16085 1970 11 SI MM ISEULT 1970-02-07 18:00:00 TS -17.7201 66.4430 reunion main 949 919 O____O___OP_O_ jtwc_sh SH131970 -17.6000 66.6000 -1 -17.9000 66.2000 99 9.90000 -17.6000 66.6000 TC 35 -17.6008 66.6150 2 -17.9000 66.2000 TC 105 8 272
1970033S16085 1970 11 SI MM ISEULT 1970-02-07 21:00:00 TS -17.7201 66.0489 main 909 879 P____P___PP_P_ SH131970 -17.6000 66.1775 -1 -17.8999 65.8501 99 -17.6000 66.1775 TC 35 -17.6005 66.1894 2 -17.8999 65.8501 TC 107 7 270
1970033S16085 1970 11 SI MM ISEULT 1970-02-08 00:00:00 TS -17.7200 65.6800 reunion main 879 850 O____O___OO_O_ jtwc_sh SH131970 -17.6000 65.8000 -1 -17.9000 65.5000 4 9.90000 -17.6000 65.8000 TC 35 -17.6000 65.8000 2 -17.9000 65.5000 TC 110 6 272
1970033S16085 1970 11 SI MM ISEULT 1970-02-08 03:00:00 TS -17.6990 65.3764 main 850 820 P____P___PP_P_ SH131970 -17.5999 65.5275 -1 -17.8499 65.1499 4 -17.5999 65.5275 TC 35 -17.5953 65.5271 2 -17.8499 65.1499 TC 110 6 274
1970033S16085 1970 11 SI MM ISEULT 1970-02-08 06:00:00 TS -17.6783 65.0985 reunion main 820 791 O____O___OP_O_ jtwc_sh SH131970 -17.6000 65.3000 -1 -17.8000 64.8000 99 9.90000 -17.6000 65.3000 TC 35 -17.5916 65.2924 2 -17.8000 64.8000 TC 110 5 272
1970033S16085 1970 11 SI MM ISEULT 1970-02-08 09:00:00 TS -17.6784 64.8123 main 791 762 P____P___PP_P_ SH131970 -17.5999 65.0650 -1 -17.8000 64.4351 99 -17.5999 65.0650 TC 35 -17.5922 65.0615 2 -17.8000 64.4351 TC 112 6 270
1970033S16085 1970 11 SI MM ISEULT 1970-02-08 12:00:00 TS -17.6800 64.5200 reunion main 762 732 O____O___OO_O_ jtwc_sh SH131970 -17.6000 64.8000 -1 -17.8000 64.1000 99 9.90000 -17.6000 64.8000 TC 35 -17.6000 64.8000 2 -17.8000 64.1000 TC 115 6 271
1970033S16085 1970 11 SI MM ISEULT 1970-02-08 15:00:00 TS -17.6704 64.2115 main 732 704 P____P___PP_P_ SH131970 -17.5925 64.4725 -1 -17.7723 63.8501 99 -17.5925 64.4725 TC 35 -17.6225 64.4123 2 -17.7723 63.8501 TC 117 6 273
1970033S16085 1970 11 SI MM ISEULT 1970-02-08 18:00:00 TS -17.6502 63.8795 reunion main 704 671 O____O___OP_O_ jtwc_sh SH131970 -17.6000 64.1000 -1 -17.7000 63.6000 99 9.90000 -17.6000 64.1000 TC 35 -17.6508 63.9977 2 -17.7000 63.6000 TC 120 7 274
1970033S16085 1970 11 SI MM ISEULT 1970-02-08 21:00:00 TS -17.6188 63.4898 main 671 642 P____P___PP_P_ SH131970 -17.6502 63.6626 -1 -17.5575 63.2574 99 -17.6502 63.6626 TC 50 -17.6787 63.6092 2 -17.5575 63.2574 TC 120 7 276
1970033S16085 1970 11 SI MM ISEULT 1970-02-09 00:00:00 TS -17.5800 63.1400 reunion main 633 619 O____O___OO_O_ jtwc_sh SH131970 -17.7000 63.3000 -1 -17.4000 62.9000 4 9.90000 -17.7000 63.3000 TC 65 -17.7000 63.3000 4 -17.4000 62.9000 TC 120 5 279
1970033S16085 1970 11 SI MM ISEULT 1970-02-09 03:00:00 TS -17.5352 62.9351 main 619 610 P____P___PP_P_ SH131970 -17.7074 63.1475 -1 -17.2774 62.5925 4 -17.7074 63.1475 TC 65 -17.7064 63.1956 4 -17.2774 62.5925 TC 120 3 283
1970033S16085 1970 11 SI MM ISEULT 1970-02-09 06:00:00 TS -17.5013 62.7930 reunion main 610 601 O____O___OP_O_ jtwc_sh SH131970 -17.7000 63.1000 -1 -17.2000 62.3000 4 9.90000 -17.7000 63.1000 TC 65 -17.7064 63.1649 4 -17.2000 62.3000 TC 120 3 279
1970033S16085 1970 11 SI MM ISEULT 1970-02-09 09:00:00 TS -17.4946 62.6634 main 601 582 P____P___PP_P_ SH131970 -17.6998 63.1025 -1 -17.1850 61.9926 4 -17.6998 63.1025 TC 65 -17.7032 63.1268 4 -17.1850 61.9926 TC 117 3 270
1970033S16085 1970 11 SI MM ISEULT 1970-02-09 12:00:00 TS -17.5000 62.4800 reunion main 582 555 O____O___OO_O_ jtwc_sh SH131970 -17.7000 63.0000 -1 -17.2000 61.7000 99 9.90000 -17.7000 63.0000 TC 65 -17.7000 63.0000 4 -17.2000 61.7000 TC 115 5 270
1970033S16085 1970 11 SI MM ISEULT 1970-02-09 15:00:00 TS -17.4934 62.1472 main 546 520 P____P___PP_P_ SH131970 -17.7002 62.6025 -1 -17.1849 61.4499 99 -17.7002 62.6025 TC 65 -17.6969 62.6309 4 -17.1849 61.4499 TC 112 7 270
1970033S16085 1970 11 SI MM ISEULT 1970-02-09 18:00:00 TS -17.4988 61.7545 reunion main 520 486 O____O___OP_O_ jtwc_sh SH131970 -17.7000 62.1000 -1 -17.2000 61.2000 99 9.90000 -17.7000 62.1000 TC 65 -17.6940 62.1724 4 -17.2000 61.2000 TC 110 8 267
1970033S16085 1970 11 SI MM ISEULT 1970-02-09 21:00:00 TS -17.5268 61.3596 main 486 445 P____P___PP_P_ SH131970 -17.7000 61.6550 -1 -17.2700 60.8925 99 -17.7000 61.6550 TC 65 -17.6938 61.7028 4 -17.2700 60.8925 TC 107 7 263
1970033S16085 1970 11 SI MM ISEULT 1970-02-10 00:00:00 TS -17.5800 61.0200 reunion main 445 422 O____O___OO_O_ jtwc_sh SH131970 -17.7000 61.3000 -1 -17.4000 60.6000 4 9.90000 -17.7000 61.3000 TC 65 -17.7000 61.3000 4 -17.4000 60.6000 TC 105 5 256
1970033S16085 1970 11 SI MM ISEULT 1970-02-10 03:00:00 TS -17.6558 60.8050 main 422 414 P____P___PP_P_ SH131970 -17.6924 61.1125 -1 -17.5925 60.3626 4 -17.6924 61.1125 TC 65 -17.7091 61.0750 4 -17.5925 60.3626 TC 102 4 244
1970033S16085 1970 11 SI MM ISEULT 1970-02-10 06:00:00 TS -17.7454 60.6650 reunion main 414 399 O____O___OP_O_ jtwc_sh SH131970 -17.7000 61.0000 -1 -17.8000 60.2000 99 9.90000 -17.7000 61.0000 TC 65 -17.7268 60.9249 4 -17.8000 60.2000 TC 100 3 233
1970033S16085 1970 11 SI MM ISEULT 1970-02-10 09:00:00 TS -17.8342 60.5565 main 399 383 P____P___PP_P_ SH131970 -17.7575 60.8576 -1 -17.9500 60.1274 99 -17.7575 60.8576 TC 65 -17.7561 60.8124 4 -17.9500 60.1274 TC 97 3 228
1970033S16085 1970 11 SI MM ISEULT 1970-02-10 12:00:00 TS -17.9200 60.4600 reunion main 383 360 O____O___OO_O_ jtwc_sh SH131970 -17.8000 60.7000 -1 -18.1000 60.1000 99 9.90000 -17.8000 60.7000 TC 65 -17.8000 60.7000 4 -18.1000 60.1000 TC 95 3 241
1970033S16085 1970 11 SI MM ISEULT 1970-02-10 15:00:00 TS -17.9560 60.3222 main 360 352 P____P___PP_P_ SH131970 -17.7275 60.4999 -1 -18.2850 60.0500 99 -17.7275 60.4999 TC 65 -17.7551 60.5115 4 -18.2850 60.0500 TC 92 3 248
1970033S16085 1970 11 SI MM ISEULT 1970-02-10 18:00:00 TS -18.0280 60.1839 reunion main 352 329 O____O___OP_O_ jtwc_sh SH131970 -17.7000 60.3000 -1 -18.5000 60.0000 99 9.90000 -17.7000 60.3000 TC 65 -17.7402 60.3195 4 -18.5000 60.0000 TC 90 3 229
1970033S16085 1970 11 SI MM ISEULT 1970-02-10 21:00:00 TS -18.1750 60.0625 main 329 307 P____P___PP_P_ SH131970 -17.7950 60.1349 -1 -18.7275 59.9500 99 -17.7950 60.1349 TC 65 -17.8302 60.1428 4 -18.7275 59.9500 TC 87 5 206
1970033S16085 1970 11 SI MM ISEULT 1970-02-11 00:00:00 TS -18.4600 59.9600 reunion main 300 266 O____O___OO_O_ jtwc_sh SH131970 -18.1000 60.0000 -1 -19.0000 59.9000 4 9.90000 -18.1000 60.0000 TC 65 -18.1000 60.0000 4 -19.0000 59.9000 TC 85 8 194
1970033S16085 1970 11 SI MM ISEULT 1970-02-11 03:00:00 TS -18.9145 59.8693 main 266 227 P____P___PP_P_ SH131970 -18.6600 59.8777 -1 -19.3050 59.8425 4 -18.6600 59.8777 TC 65 -18.6422 59.9062 4 -19.3050 59.8425 TC 82 11 188
1970033S16085 1970 11 SI MM ISEULT 1970-02-11 06:00:00 TS -19.5125 59.8096 reunion main 227 208 O____O___OP_O_ jtwc_sh SH131970 -19.4000 59.8000 -1 -19.7000 59.8000 99 9.90000 -19.4000 59.8000 TC 65 -19.3627 59.8477 4 -19.7000 59.8000 TC 80 13 184
1970033S16085 1970 11 SI MM ISEULT 1970-02-11 09:00:00 TS -20.1943 59.7732 main 208 208 P____P___PP_P_ SH131970 -20.1850 59.7848 -1 -20.2124 59.7406 99 -20.1850 59.7848 TC 65 -20.1768 59.8154 4 -20.2124 59.7406 TC 77 14 0
1970033S16085 1970 11 SI MM ISEULT 1970-02-11 12:00:00 TS -20.9200 59.8000 reunion main 218 218 O____O___OO_O_ jtwc_sh SH131970 -21.0000 59.8000 -1 -20.8000 59.8000 99 9.90000 -21.0000 59.8000 TC 65 -21.0000 59.8000 4 -20.8000 59.8000 TC 75 14 174
1970033S16085 1970 11 SI MM ISEULT 1970-02-11 15:00:00 TS -21.6240 59.9226 main 259 259 P____P___PP_P_ SH131970 -21.7725 59.8000 -1 -21.4077 60.1119 99 -21.7725 59.8000 TC 65 -21.7598 59.7892 4 -21.4077 60.1119 TC 72 14 169
1970033S16085 1970 11 SI MM ISEULT 1970-02-11 18:00:00 TS -22.3010 60.0784 reunion main 319 319 O____O___OP_O_ jtwc_sh SH131970 -22.5000 59.8000 -1 -22.0000 60.5000 99 9.90000 -22.5000 59.8000 TC 65 -22.5048 59.7919 4 -22.0000 60.5000 TC 70 13 169
1970033S16085 1970 11 SI MM ISEULT 1970-02-11 21:00:00 TS -22.9235 60.2007 main 372 372 P____P___PP_P_ SH131970 -23.2025 59.8000 -1 -22.5075 60.8025 99 -23.2025 59.8000 TC 65 -23.1974 59.7987 4 -22.5075 60.8025 TC 67 12 171
1970033S16085 1970 11 SI MM ISEULT 1970-02-12 00:00:00 TS -23.4800 60.2800 reunion main 429 429 O____O___OO_O_ jtwc_sh SH131970 -23.8000 59.8000 -1 -23.0000 61.0000 4 9.90000 -23.8000 59.8000 TC 65 -23.8000 59.8000 4 -23.0000 61.0000 TC 65 11 175
1970033S16085 1970 11 SI MM ISEULT 1970-02-12 03:00:00 TS -23.9670 60.3005 main 473 473 P____P___PP_P_ SH131970 -24.2450 59.8074 -1 -23.5424 61.0527 4 -24.2450 59.8074 TC 65 -24.2602 59.7822 4 -23.5424 61.0527 TC 62 9 0
1970033S16085 1970 11 SI MM ISEULT 1970-02-12 06:00:00 TS -24.4065 60.2715 reunion main 511 511 O____O___OP_O_ jtwc_sh SH131970 -24.6000 59.8000 -1 -24.1000 61.0000 99 9.90000 -24.6000 59.8000 TC 65 -24.6323 59.7575 4 -24.1000 61.0000 TC 60 9 185
1970033S16085 1970 11 SI MM ISEULT 1970-02-12 09:00:00 TS -24.8236 60.2266 main 544 544 P____P___PP_P_ SH131970 -24.9500 59.7501 -1 -24.6274 60.9519 99 -24.9500 59.7501 TC 65 -24.9633 59.7291 4 -24.6274 60.9519 TC 60 9 188
1970033S16085 1970 11 SI MM ISEULT 1970-02-12 12:00:00 TS -25.2600 60.1400 reunion main 590 590 O____O___OO_O_ jtwc_sh SH131970 -25.3000 59.7000 -1 -25.2000 60.8000 99 9.90000 -25.3000 59.7000 TC 65 -25.3000 59.7000 4 -25.2000 60.8000 TC 60 10 192
1970033S16085 1970 11 SI MM ISEULT 1970-02-12 15:00:00 TS -25.7677 60.0099 main 637 637 P____P___PP_P_ SH131970 -25.6850 59.6999 -1 -25.8851 60.4953 99 -25.6850 59.6999 TC 65 -25.6985 59.6592 4 -25.8851 60.4953 TC 55 11 194
1970033S16085 1970 11 SI MM ISEULT 1970-02-12 18:00:00 TS -26.3025 59.8441 reunion main 682 682 O____O___OP_O_ jtwc_sh SH131970 -26.1000 59.7000 -1 -26.6000 60.1000 99 9.90000 -26.1000 59.7000 TC 65 -26.1125 59.6207 4 -26.6000 60.1000 TC 50 11 197
1970033S16085 1970 11 SI MM ISEULT 1970-02-12 21:00:00 TS -26.8561 59.6448 main 734 734 P____P___PP_P_ SH131970 -26.5350 59.6427 -1 -27.3327 59.6707 99 -26.5350 59.6427 TC 65 -26.5453 59.5968 4 -27.3327 59.6707 TC 47 11 197
1970033S16085 1970 11 SI MM ISEULT 1970-02-13 00:00:00 MX -27.3600 59.4800 reunion main 777 777 O____O___OO_O_ jtwc_sh SH131970 -27.0000 59.6000 -1 -27.9000 59.3000 3 9.90000 -27.0000 59.6000 TC 65 -27.0000 59.6000 4 -27.9000 59.3000 EX 45 9 193
1970033S16085 1970 11 SI MM ISEULT 1970-02-13 03:00:00 MX -27.7314 59.4133 main 801 801 P____P___PP_P_ SH131970 -27.4925 59.6275 -1 -28.0948 59.0966 3 -27.4925 59.6275 TC 65 -27.4823 59.6183 4 -28.0948 59.0966 EX 42 7 184
1970033S16085 1970 11 SI MM ISEULT 1970-02-13 06:00:00 MX -28.0769 59.4137 reunion main 840 840 O____O___OP_O_ jtwc_sh SH131970 -28.0000 59.7000 -1 -28.2000 59.0000 99 9.90000 -28.0000 59.7000 TC 65 -27.9847 59.6684 4 -28.2000 59.0000 EX 40 8 0
1970033S16085 1970 11 SI MM ISEULT 1970-02-13 09:00:00 MX -28.5129 59.4339 main 880 880 P____P___PP_P_ SH131970 -28.5075 59.7777 -1 -28.5275 58.9275 99 -28.5075 59.7777 TC 65 -28.4948 59.7593 4 -28.5275 58.9275 EX 37 9 175
1970033S16085 1970 11 SI MM ISEULT 1970-02-13 12:00:00 MX -28.9600 59.5000 reunion main 935 935 O____O___OO_O_ jtwc_sh SH131970 -29.0000 59.9000 -1 -28.9000 58.9000 99 9.90000 -29.0000 59.9000 TC 65 -29.0000 59.9000 4 -28.9000 58.9000 EX 35 9 170
1970033S16085 1970 11 SI MM ISEULT 1970-02-13 15:00:00 MX -29.3623 59.5941 main 979 979 P____P___PP_P_ SH131970 -29.4499 60.0703 -1 -29.2150 58.8850 99 -29.4499 60.0703 TC 50 -29.4817 60.0601 4 -29.2150 58.8850 EX 35 8 165
1970033S16085 1970 11 SI MM ISEULT 1970-02-13 18:00:00 MX -29.7513 59.7349 reunion main 1024 1024 O____O___OP_O_ jtwc_sh SH131970 -29.9000 60.3000 -1 -29.5000 58.9000 99 9.90000 -29.9000 60.3000 TC 35 -29.9566 60.2744 4 -29.5000 58.9000 EX 35 8 162
1970033S16085 1970 11 SI MM ISEULT 1970-02-13 21:00:00 MX -30.1425 59.8946 main 1062 1062 P____P___PP_P_ SH131970 -30.3998 60.5628 -1 -29.7423 58.8979 99 -30.3998 60.5628 TC 35 -30.4283 60.5514 4 -29.7423 58.8979 EX 32 9 156
1970033S16085 1970 11 SI MM ISEULT 1970-02-14 00:00:00 MX -30.5400 60.1400 reunion main 1111 1111 O____O___OO_O_ jtwc_sh SH131970 -30.9000 60.9000 -1 -30.0000 59.0000 5 9.90000 -30.9000 60.9000 TC 35 -30.9000 60.9000 2 -30.0000 59.0000 EX 30 10 147
1970033S16085 1970 11 SI MM ISEULT 1970-02-14 03:00:00 MX -30.9547 60.5001 main 1177 1177 P____P___PP_P_ SH131970 -31.3499 61.3131 -1 -30.3499 59.2748 5 -31.3499 61.3131 TC 30 -31.3742 61.3247 2 -30.3499 59.2748 EX 30 9 142
1970033S16085 1970 11 SI MM ISEULT 1970-02-14 06:00:00 MX -31.2912 60.8139 reunion main 1220 1220 O____O___OP_O_ jtwc_sh SH131970 -31.8000 61.8000 -1 -30.7000 59.7000 99 9.90000 -31.8000 61.8000 TC 25 -31.8500 61.8120 2 -30.7000 59.7000 EX 30 8 137
1970033S16085 1970 11 SI MM ISEULT 1970-02-14 09:00:00 MX -31.5332 61.1282 main 1253 1253 P____P___PP_P_ SH131970 -32.2880 62.3361 -1 -30.9576 60.2204 99 -32.2880 62.3361 TC 25 -32.3258 62.3434 2 -30.9576 60.2204 EX 30 6 126
1970033S16085 1970 11 SI MM ISEULT 1970-02-14 12:00:00 MX -31.6364 61.3727 reunion main 1276 1261 O____O___OO_O_ jtwc_sh SH131970 -32.8000 62.9000 -1 -31.2000 60.8000 99 9.90000 -32.8000 62.9000 TC 25 -32.8000 62.9000 7 -31.2000 60.8000 EX 30 2 82
1970033S16085 1970 11 SI MM ISEULT 1970-02-14 15:00:00 ET -31.5074 61.3574 main 1266 1266 _____P______P_ SH131970 -1 -31.5074 61.3574 99 TC 7 -31.5074 61.3574 EX 30 5 110
1970033S16085 1970 11 SI MM ISEULT 1970-02-14 18:00:00 ET -31.8000 61.9000 reunion main 1318 1318 _____O______O_ -1 -31.8000 61.9000 99 9.90000 7 -31.8000 61.9000 EX 30 10 120
1970033S16085 1970 11 SI MM ISEULT 1970-02-14 21:00:00 ET -32.0228 62.4099 main 1361 1361 _____P______P_ -1 -32.0228 62.4099 99 7 -32.0228 62.4099 EX 30 9 115
1970033S16085 1970 11 SI MM ISEULT 1970-02-15 00:00:00 ET -32.2000 62.9000 reunion main 1405 _____O______O_ -1 -32.2000 62.9000 5 9.90000 -32.2000 62.9000 EX 30 9 113

About IBTrACS Database

This database is a web-friendly format of International Best Track Archive for Climate Stewardship (IBTrACS), a global best track data archive curated by NOAA dating back to 1842.

Updated: 2021-10-08